Terminal Aerodrome Forecast
Issued by NWS North Platte, NE

Home | Current Version | Previous Version | Text Only | Print | Product List | Glossary Off
Versions: 1 2 3 4 5 6 7 8 9 10 11 12 13 14

000
FTUS43 KLBF 211100
TAFVTN
TAF
KVTN 211120Z 2112/2212 19010KT P6SM SKC
     FM211500 19012G19KT P6SM SKC
     FM211800 18020G29KT P6SM SCT150
     FM220100 17015KT P6SM SCT150
     FM220800 22010KT P6SM BKN050 OVC100=

USA.gov is the U.S. government's official web portal to all federal, state and local government web resources and services.